Riondel, Canada
Current Conditions -  °F | °C
As of 12:00 AM on Thursday 29 Jan 2015 (Local Time) from CYXC Reporting Station
Few Clouds Few Clouds  
Wind Chill: 25°   Ceiling: Unl
Heat Index: 25°   Visibility: 25mi
Dew Point: 23°   Wind: 2mph
Humidity: 93%   Direction: NA
Pressure: 30.44"   Gusts: NA
Location:  49.77°N, 116.85°W
Report Text: CYXC 290800Z VRB02KT 25SM FEW060 FEW240 M04/M05 A3044 RMK SC1CI1 SC TR FROIN SLP345
Loading
Personal Weather Stations






























Interactive Weather Map New forecast layout! Learn more

10-Day Weather Forecast

Advertisements
Track Severe Weather on mobile